createdAt,value
2023-07-30T00:00:15.723Z,27.73
2023-07-30T00:02:42.971Z,27.75
2023-07-30T00:05:10.233Z,27.67
2023-07-30T00:07:38.753Z,27.65
2023-07-30T00:10:07.185Z,27.73
2023-07-30T00:12:34.381Z,27.71
2023-07-30T00:15:01.618Z,27.67
2023-07-30T00:17:28.773Z,27.67
2023-07-30T00:19:55.953Z,27.65
2023-07-30T00:22:24.426Z,27.64
2023-07-30T00:24:53.142Z,27.60
2023-07-30T00:27:23.344Z,27.58
2023-07-30T00:29:50.991Z,27.61
2023-07-30T00:32:18.271Z,27.64
2023-07-30T00:34:45.577Z,27.67
2023-07-30T00:37:12.742Z,27.71
2023-07-30T00:39:39.904Z,27.74
2023-07-30T00:42:08.507Z,27.73
2023-07-30T00:44:35.673Z,27.75
2023-07-30T00:47:03.256Z,27.71
2023-07-30T00:49:30.704Z,27.69
2023-07-30T00:51:58.031Z,27.70
2023-07-30T00:54:26.511Z,27.71
2023-07-30T00:56:54.728Z,27.68
2023-07-30T00:59:23.460Z,27.66
2023-07-30T01:01:52.035Z,27.67
2023-07-30T01:04:19.554Z,27.66
2023-07-30T01:06:47.289Z,27.62
2023-07-30T01:09:15.453Z,27.46
2023-07-30T01:11:43.998Z,27.62
2023-07-30T01:14:11.603Z,27.64
2023-07-30T01:16:40.188Z,27.58
2023-07-30T01:19:07.616Z,27.61
2023-07-30T01:21:37.622Z,27.65
2023-07-30T01:24:05.445Z,27.71
2023-07-30T01:26:38.528Z,27.73
2023-07-30T01:29:17.175Z,27.68
2023-07-30T01:31:45.213Z,27.66
2023-07-30T01:34:13.367Z,27.73
2023-07-30T01:36:42.982Z,27.68
2023-07-30T01:39:10.988Z,27.74
2023-07-30T01:41:38.328Z,27.71
2023-07-30T01:44:05.723Z,27.72
2023-07-30T01:46:32.951Z,27.71
2023-07-30T01:49:00.206Z,27.68
2023-07-30T01:51:27.577Z,27.69
2023-07-30T01:53:56.170Z,27.60
2023-07-30T01:56:23.348Z,27.61
2023-07-30T01:58:50.552Z,27.60
2023-07-30T02:01:17.811Z,27.63
2023-07-30T02:03:45.118Z,27.64
2023-07-30T02:06:12.562Z,27.64
2023-07-30T02:08:39.811Z,27.60
2023-07-30T02:11:08.332Z,27.72
2023-07-30T02:13:35.479Z,27.74
2023-07-30T02:16:02.749Z,27.71
2023-07-30T02:18:29.953Z,27.75
2023-07-30T02:20:57.126Z,27.47
2023-07-30T02:23:24.804Z,27.73
2023-07-30T02:25:51.960Z,27.71
2023-07-30T02:28:20.543Z,27.71
2023-07-30T02:30:47.782Z,27.75
2023-07-30T02:33:14.958Z,27.68
2023-07-30T02:35:44.187Z,27.71
2023-07-30T02:38:11.393Z,27.68
2023-07-30T02:40:38.635Z,27.63
2023-07-30T02:43:05.824Z,27.62
2023-07-30T02:45:34.466Z,27.61
2023-07-30T02:48:01.685Z,27.65
2023-07-30T02:50:28.848Z,27.66
2023-07-30T02:52:56.033Z,27.64
2023-07-30T02:55:23.206Z,27.73
2023-07-30T02:57:50.382Z,27.77
2023-07-30T03:00:18.121Z,27.74
2023-07-30T03:02:46.714Z,27.75
2023-07-30T03:05:14.005Z,27.75
2023-07-30T03:07:43.744Z,27.74
2023-07-30T03:10:11.247Z,27.72
2023-07-30T03:12:38.403Z,27.73
2023-07-30T03:15:06.478Z,27.70
2023-07-30T03:17:33.696Z,27.73
2023-07-30T03:20:02.602Z,27.68
2023-07-30T03:22:29.790Z,27.74
2023-07-30T03:24:57.022Z,27.69
2023-07-30T03:27:24.179Z,27.67
2023-07-30T03:29:51.357Z,27.60
2023-07-30T03:32:18.590Z,27.60
2023-07-30T03:34:45.747Z,27.63
2023-07-30T03:37:14.273Z,27.60
2023-07-30T03:39:41.495Z,27.71
2023-07-30T03:42:08.654Z,27.73
2023-07-30T03:44:35.819Z,27.73
2023-07-30T03:47:03.158Z,27.65
2023-07-30T03:49:30.353Z,27.73
2023-07-30T03:51:57.569Z,27.75
2023-07-30T03:54:27.015Z,27.69
2023-07-30T03:56:54.274Z,27.74
2023-07-30T03:59:21.436Z,27.75
2023-07-30T04:01:48.584Z,27.71
2023-07-30T04:04:15.745Z,27.73
2023-07-30T04:06:42.927Z,27.73
2023-07-30T04:09:10.095Z,27.65
2023-07-30T04:11:38.807Z,27.71
2023-07-30T04:14:07.581Z,27.68
2023-07-30T04:16:34.907Z,27.65
2023-07-30T04:19:02.124Z,27.63
2023-07-30T04:21:29.476Z,27.62
2023-07-30T04:23:56.646Z,27.65
2023-07-30T04:26:23.856Z,27.65
2023-07-30T04:28:52.384Z,27.69
2023-07-30T04:31:19.883Z,27.68
2023-07-30T04:33:47.070Z,27.74
2023-07-30T04:36:14.324Z,27.72
2023-07-30T04:38:41.498Z,27.65
2023-07-30T04:41:08.727Z,27.79
2023-07-30T04:43:35.902Z,27.76
2023-07-30T04:46:04.464Z,27.75
2023-07-30T04:48:31.676Z,27.73
2023-07-30T04:50:58.968Z,27.75
2023-07-30T04:53:26.200Z,27.69
2023-07-30T04:55:56.435Z,27.72
2023-07-30T04:58:23.770Z,27.71
2023-07-30T05:00:51.220Z,27.72
2023-07-30T05:03:19.884Z,27.68
2023-07-30T05:05:47.235Z,27.66
2023-07-30T05:08:14.433Z,27.66
2023-07-30T05:10:41.610Z,27.65
2023-07-30T05:13:08.958Z,27.67
2023-07-30T05:15:38.827Z,27.58
2023-07-30T05:18:06.084Z,27.66
2023-07-30T05:20:34.839Z,27.72
2023-07-30T05:23:01.997Z,27.68
2023-07-30T05:25:29.353Z,27.72
2023-07-30T05:27:56.748Z,27.61
2023-07-30T05:30:23.905Z,27.42
2023-07-30T05:32:51.170Z,27.41
2023-07-30T05:35:18.389Z,27.30
2023-07-30T05:37:46.951Z,27.00
2023-07-30T05:40:14.306Z,27.00
2023-07-30T05:42:41.521Z,27.13
2023-07-30T05:45:09.854Z,27.00
2023-07-30T05:47:37.097Z,26.96
2023-07-30T05:50:04.536Z,26.97
2023-07-30T05:52:31.742Z,26.86
2023-07-30T05:55:00.383Z,26.82
2023-07-30T05:57:27.608Z,26.74
2023-07-30T05:59:54.823Z,26.61
2023-07-30T06:02:21.961Z,26.44
2023-07-30T06:04:49.118Z,26.80
2023-07-30T06:07:16.282Z,26.64
2023-07-30T06:09:43.527Z,26.75
2023-07-30T06:12:12.106Z,26.85
2023-07-30T06:14:39.312Z,26.71
2023-07-30T06:17:06.651Z,26.66
2023-07-30T06:19:34.125Z,26.63
2023-07-30T06:22:01.290Z,26.63
2023-07-30T06:24:28.445Z,26.63
2023-07-30T06:26:55.812Z,26.66
2023-07-30T06:29:24.343Z,26.57
2023-07-30T06:31:51.613Z,26.52
2023-07-30T06:34:18.887Z,26.48
2023-07-30T06:36:46.034Z,26.47
2023-07-30T06:39:13.284Z,26.48
2023-07-30T06:41:40.992Z,26.50
2023-07-30T06:44:08.408Z,26.32
2023-07-30T06:46:37.127Z,26.09
2023-07-30T06:49:04.344Z,26.25
2023-07-30T06:51:31.575Z,26.21
2023-07-30T06:53:58.817Z,26.22
2023-07-30T06:56:26.004Z,26.41
2023-07-30T06:58:53.185Z,26.55
2023-07-30T07:01:20.412Z,26.58
2023-07-30T07:03:49.106Z,26.58
2023-07-30T07:06:16.323Z,26.72
2023-07-30T07:08:43.481Z,26.85
2023-07-30T07:11:10.707Z,26.88
2023-07-30T07:13:37.856Z,26.92
2023-07-30T07:16:05.344Z,26.99
2023-07-30T07:18:32.624Z,27.02
2023-07-30T07:21:01.186Z,27.02
2023-07-30T07:23:28.340Z,26.98
2023-07-30T07:25:55.704Z,26.94
2023-07-30T07:28:23.047Z,27.00
2023-07-30T07:30:50.251Z,26.99
2023-07-30T07:33:17.474Z,27.01
2023-07-30T07:35:44.621Z,27.02
2023-07-30T07:38:13.155Z,27.00
2023-07-30T07:40:40.553Z,27.06
2023-07-30T07:43:08.038Z,27.11
2023-07-30T07:45:35.492Z,27.12
2023-07-30T07:48:02.776Z,27.09
2023-07-30T07:50:29.970Z,27.11
2023-07-30T07:52:57.180Z,27.07
2023-07-30T07:55:25.783Z,27.14
2023-07-30T07:57:52.950Z,27.14
2023-07-30T08:00:20.140Z,27.11
2023-07-30T08:02:50.336Z,27.09
2023-07-30T08:05:18.886Z,27.03
2023-07-30T08:07:47.014Z,27.10
2023-07-30T08:10:14.245Z,27.01
2023-07-30T08:12:43.218Z,27.08
2023-07-30T08:15:10.704Z,27.06
2023-07-30T08:17:37.950Z,27.08
2023-07-30T08:20:06.282Z,27.09
2023-07-30T08:22:33.988Z,27.03
2023-07-30T08:25:01.168Z,27.13
2023-07-30T08:27:28.469Z,27.13
2023-07-30T08:29:57.120Z,27.19
2023-07-30T08:32:24.428Z,27.19
2023-07-30T08:34:51.630Z,27.18
2023-07-30T08:37:18.794Z,27.22
2023-07-30T08:39:48.337Z,27.19
2023-07-30T08:42:17.143Z,27.19
2023-07-30T08:44:44.547Z,27.23
2023-07-30T08:47:13.126Z,27.22
2023-07-30T08:49:40.420Z,27.22
2023-07-30T08:52:10.067Z,27.22
2023-07-30T08:54:38.428Z,27.21
2023-07-30T08:57:06.516Z,27.20
2023-07-30T08:59:45.509Z,27.15
2023-07-30T09:02:24.472Z,27.06
2023-07-30T09:04:57.516Z,27.14
2023-07-30T09:07:25.376Z,27.14
2023-07-30T09:09:52.930Z,27.08
2023-07-30T09:12:20.172Z,27.16
2023-07-30T09:14:52.172Z,27.22
2023-07-30T09:17:21.229Z,27.22
2023-07-30T09:19:48.729Z,27.29
2023-07-30T09:22:21.233Z,27.30
2023-07-30T09:24:51.169Z,27.22
2023-07-30T09:27:21.955Z,27.29
2023-07-30T09:29:52.366Z,27.32
2023-07-30T09:32:21.266Z,27.28
2023-07-30T09:34:48.495Z,27.30
2023-07-30T09:37:15.680Z,27.31
2023-07-30T09:39:42.913Z,27.33
2023-07-30T09:42:10.301Z,27.33
2023-07-30T09:44:38.707Z,27.28
2023-07-30T09:47:06.514Z,27.24
2023-07-30T09:49:35.170Z,27.24
2023-07-30T09:52:03.980Z,27.16
2023-07-30T09:54:32.676Z,27.22
2023-07-30T09:56:59.845Z,27.23
2023-07-30T09:59:27.048Z,27.23
2023-07-30T10:01:54.456Z,27.25
2023-07-30T10:04:22.398Z,27.31
2023-07-30T10:06:56.075Z,27.26
2023-07-30T10:09:27.640Z,27.36
2023-07-30T10:11:55.590Z,27.31
2023-07-30T10:14:25.528Z,27.33
2023-07-30T10:16:54.884Z,27.15
2023-07-30T10:19:25.811Z,27.34
2023-07-30T10:21:58.307Z,27.35
2023-07-30T10:24:26.540Z,27.34
2023-07-30T10:26:54.215Z,27.34
2023-07-30T10:29:21.911Z,27.24
2023-07-30T10:31:53.264Z,27.26
2023-07-30T10:34:20.506Z,27.22
2023-07-30T10:36:50.120Z,27.18
2023-07-30T10:39:20.829Z,27.22
2023-07-30T10:41:51.250Z,27.26
2023-07-30T10:44:20.133Z,27.27
2023-07-30T10:46:47.419Z,27.27
2023-07-30T10:49:14.670Z,27.24
2023-07-30T10:51:42.243Z,27.34
2023-07-30T10:54:10.000Z,27.35
2023-07-30T10:56:40.520Z,27.37
2023-07-30T10:59:08.664Z,27.20
2023-07-30T11:01:40.453Z,27.38
2023-07-30T11:04:09.525Z,27.30
2023-07-30T11:06:36.730Z,27.40
2023-07-30T11:09:04.201Z,27.40
2023-07-30T11:11:31.697Z,27.38
2023-07-30T11:14:01.489Z,27.38
2023-07-30T11:16:28.805Z,27.30
2023-07-30T11:18:56.080Z,27.31
2023-07-30T11:21:23.227Z,27.22
2023-07-30T11:23:51.900Z,27.15
2023-07-30T11:26:20.905Z,27.27
2023-07-30T11:28:48.457Z,27.23
2023-07-30T11:31:18.549Z,27.17
2023-07-30T11:33:47.595Z,27.25
2023-07-30T11:36:17.412Z,27.33
2023-07-30T11:38:46.492Z,27.35
2023-07-30T11:41:14.969Z,27.39
2023-07-30T11:43:44.062Z,27.43
2023-07-30T11:46:15.779Z,27.42
2023-07-30T11:48:45.514Z,27.40
2023-07-30T11:51:23.327Z,27.43
2023-07-30T11:53:52.175Z,27.36
2023-07-30T11:56:23.819Z,27.44
2023-07-30T11:58:52.552Z,27.39
2023-07-30T12:01:20.198Z,27.41
2023-07-30T12:03:48.892Z,27.44
2023-07-30T12:06:16.097Z,27.38
2023-07-30T12:08:43.252Z,27.43
2023-07-30T12:11:11.442Z,27.38
2023-07-30T12:13:45.724Z,27.36
2023-07-30T12:16:14.161Z,27.25
2023-07-30T12:18:41.712Z,27.24
2023-07-30T12:21:10.305Z,27.32
2023-07-30T12:23:37.907Z,27.33
2023-07-30T12:26:05.209Z,27.44
2023-07-30T12:28:33.453Z,27.53
2023-07-30T12:31:00.776Z,27.45
2023-07-30T12:33:28.021Z,27.55
2023-07-30T12:35:55.203Z,27.45
2023-07-30T12:38:23.799Z,27.53
2023-07-30T12:40:50.975Z,27.52
2023-07-30T12:43:18.257Z,27.55
2023-07-30T12:45:45.519Z,27.48
2023-07-30T12:48:12.827Z,27.44
2023-07-30T12:50:40.196Z,27.60
2023-07-30T12:53:07.404Z,27.65
2023-07-30T12:55:35.953Z,27.64
2023-07-30T12:58:03.160Z,27.68
2023-07-30T13:00:30.358Z,27.66
2023-07-30T13:02:57.547Z,27.64
2023-07-30T13:05:24.837Z,27.61
2023-07-30T13:07:52.051Z,27.62
2023-07-30T13:10:19.240Z,27.58
2023-07-30T13:12:47.789Z,27.69
2023-07-30T13:15:14.977Z,27.67
2023-07-30T13:17:42.194Z,27.82
2023-07-30T13:20:10.174Z,27.69
2023-07-30T13:22:37.351Z,27.78
2023-07-30T13:25:05.148Z,27.80
2023-07-30T13:27:35.464Z,27.76
2023-07-30T13:30:07.254Z,27.74
2023-07-30T13:32:34.518Z,27.74
2023-07-30T13:35:01.732Z,27.69
2023-07-30T13:37:29.036Z,27.72
2023-07-30T13:39:56.297Z,27.68
2023-07-30T13:42:23.497Z,27.61
2023-07-30T13:44:50.715Z,27.58
2023-07-30T13:47:19.364Z,27.58
2023-07-30T13:49:46.559Z,27.54
2023-07-30T13:52:13.856Z,27.61
2023-07-30T13:54:41.190Z,27.69
2023-07-30T13:57:08.539Z,27.75
2023-07-30T13:59:35.820Z,27.83
2023-07-30T14:02:03.075Z,27.86
2023-07-30T14:04:31.593Z,28.06
2023-07-30T14:06:58.975Z,28.07
2023-07-30T14:09:26.162Z,28.03
2023-07-30T14:11:53.366Z,28.19
2023-07-30T14:14:20.543Z,28.26
2023-07-30T14:16:48.195Z,28.14
2023-07-30T14:19:15.525Z,28.08
2023-07-30T14:21:44.092Z,28.23
2023-07-30T14:24:11.758Z,28.26
2023-07-30T14:26:39.296Z,28.24
2023-07-30T14:29:06.584Z,28.29
2023-07-30T14:31:33.797Z,28.34
2023-07-30T14:34:01.006Z,28.21
2023-07-30T14:36:28.298Z,28.13
2023-07-30T14:38:56.976Z,28.24
2023-07-30T14:41:24.126Z,28.33
2023-07-30T14:43:51.287Z,28.33
2023-07-30T14:46:18.510Z,28.35
2023-07-30T14:48:45.696Z,28.39
2023-07-30T14:51:12.939Z,28.51
2023-07-30T14:53:40.097Z,28.46
2023-07-30T14:56:08.787Z,28.42
2023-07-30T14:58:36.335Z,28.49
2023-07-30T15:01:03.834Z,28.42
2023-07-30T15:03:31.113Z,28.46
2023-07-30T15:05:58.635Z,28.45
2023-07-30T15:08:25.902Z,28.45
2023-07-30T15:10:53.090Z,28.58
2023-07-30T15:13:21.885Z,28.58
2023-07-30T15:15:49.145Z,28.57
2023-07-30T15:18:16.374Z,28.63
2023-07-30T15:20:43.639Z,28.62
2023-07-30T15:23:10.985Z,28.74
2023-07-30T15:25:38.289Z,28.73
2023-07-30T15:28:05.586Z,28.64
2023-07-30T15:30:35.465Z,28.67
2023-07-30T15:33:02.733Z,28.64
2023-07-30T15:35:30.286Z,28.53
2023-07-30T15:37:57.439Z,28.62
2023-07-30T15:40:25.026Z,28.66
2023-07-30T15:42:52.585Z,28.89
2023-07-30T15:45:19.777Z,28.85
2023-07-30T15:47:48.576Z,28.88
2023-07-30T15:50:15.953Z,28.93
2023-07-30T15:52:43.161Z,28.93
2023-07-30T15:55:10.480Z,28.88
2023-07-30T15:57:37.766Z,28.88
2023-07-30T16:00:06.367Z,28.87
2023-07-30T16:02:34.842Z,28.97
2023-07-30T16:05:03.882Z,28.98
2023-07-30T16:07:31.028Z,28.95
2023-07-30T16:09:58.291Z,28.93
2023-07-30T16:12:25.782Z,28.95
2023-07-30T16:14:52.922Z,28.98
2023-07-30T16:17:20.552Z,28.97
2023-07-30T16:19:47.839Z,28.89
2023-07-30T16:22:16.651Z,28.96
2023-07-30T16:24:43.804Z,28.99
2023-07-30T16:27:11.106Z,28.95
2023-07-30T16:29:38.459Z,29.03
2023-07-30T16:32:06.187Z,29.06
2023-07-30T16:34:33.365Z,28.92
2023-07-30T16:37:00.502Z,28.79
2023-07-30T16:39:29.251Z,28.88
2023-07-30T16:41:56.713Z,28.89
2023-07-30T16:44:23.998Z,28.86
2023-07-30T16:46:51.282Z,28.83
2023-07-30T16:49:18.904Z,28.81
2023-07-30T16:51:46.089Z,28.86
2023-07-30T16:54:13.284Z,28.83
2023-07-30T16:56:42.199Z,28.81
2023-07-30T16:59:09.854Z,28.74
2023-07-30T17:01:37.102Z,28.68
2023-07-30T17:04:04.581Z,28.64
2023-07-30T17:06:32.192Z,28.67
2023-07-30T17:08:59.526Z,28.65
2023-07-30T17:11:26.699Z,28.61
2023-07-30T17:13:55.400Z,28.59
2023-07-30T17:16:23.228Z,28.63
2023-07-30T17:18:50.499Z,28.67
2023-07-30T17:21:17.791Z,28.73
2023-07-30T17:23:45.032Z,28.74
2023-07-30T17:26:12.472Z,28.75
2023-07-30T17:28:39.800Z,28.72
2023-07-30T17:31:11.485Z,28.61
2023-07-30T17:33:38.969Z,28.69
2023-07-30T17:36:06.667Z,28.71
2023-07-30T17:38:34.086Z,28.60
2023-07-30T17:41:01.523Z,28.63
2023-07-30T17:43:28.732Z,28.58
2023-07-30T17:45:55.962Z,28.56
2023-07-30T17:48:24.604Z,28.57
2023-07-30T17:50:52.157Z,28.57
2023-07-30T17:53:19.321Z,28.56
2023-07-30T17:55:48.440Z,28.53
2023-07-30T17:58:15.732Z,28.57
2023-07-30T18:00:43.602Z,28.57
2023-07-30T18:03:11.184Z,28.60
2023-07-30T18:05:47.250Z,28.66
2023-07-30T18:08:15.705Z,28.63
2023-07-30T18:10:44.592Z,28.68
2023-07-30T18:13:11.879Z,28.60
2023-07-30T18:15:39.140Z,28.64
2023-07-30T18:18:06.550Z,28.63
2023-07-30T18:20:34.113Z,28.64
2023-07-30T18:23:03.264Z,28.61
2023-07-30T18:25:30.612Z,28.62
2023-07-30T18:27:58.107Z,28.55
2023-07-30T18:30:25.714Z,28.54
2023-07-30T18:32:52.983Z,28.37
2023-07-30T18:35:20.296Z,28.40
2023-07-30T18:37:47.578Z,28.42
2023-07-30T18:40:16.141Z,28.03
2023-07-30T18:42:43.401Z,28.45
2023-07-30T18:45:11.581Z,28.47
2023-07-30T18:47:38.794Z,28.45
2023-07-30T18:50:07.289Z,28.48
2023-07-30T18:52:34.522Z,28.54
2023-07-30T18:55:01.723Z,28.47
2023-07-30T18:57:30.256Z,28.56
2023-07-30T18:59:57.439Z,28.53
2023-07-30T19:02:24.897Z,28.54
2023-07-30T19:04:52.129Z,28.57
2023-07-30T19:07:19.361Z,28.51
2023-07-30T19:09:47.824Z,28.55
2023-07-30T19:12:15.943Z,28.59
2023-07-30T19:14:45.100Z,28.42
2023-07-30T19:17:12.283Z,28.54
2023-07-30T19:19:39.556Z,28.48
2023-07-30T19:22:06.743Z,28.40
2023-07-30T19:24:33.921Z,28.41
2023-07-30T19:27:01.150Z,28.32
2023-07-30T19:29:28.335Z,28.42
2023-07-30T19:31:56.931Z,28.45
2023-07-30T19:34:24.138Z,28.40
2023-07-30T19:36:51.435Z,28.45
2023-07-30T19:39:18.612Z,28.42
2023-07-30T19:41:45.778Z,28.41
2023-07-30T19:44:13.096Z,28.48
2023-07-30T19:46:40.478Z,28.49
2023-07-30T19:49:09.663Z,28.47
2023-07-30T19:51:37.413Z,28.43
2023-07-30T19:54:05.191Z,28.45
2023-07-30T19:56:32.370Z,28.41
2023-07-30T19:58:59.706Z,28.40
2023-07-30T20:01:26.915Z,28.31
2023-07-30T20:03:54.334Z,28.35
2023-07-30T20:06:23.330Z,28.39
2023-07-30T20:08:50.575Z,28.33
2023-07-30T20:11:17.807Z,28.27
2023-07-30T20:13:44.987Z,28.26
2023-07-30T20:16:12.821Z,28.29
2023-07-30T20:18:40.153Z,28.26
2023-07-30T20:21:08.368Z,28.32
2023-07-30T20:23:37.925Z,28.32
2023-07-30T20:26:12.154Z,28.24
2023-07-30T20:28:39.457Z,28.36
2023-07-30T20:31:06.757Z,28.38
2023-07-30T20:33:34.020Z,28.33
2023-07-30T20:36:01.172Z,28.35
2023-07-30T20:38:28.367Z,28.35
2023-07-30T20:40:58.469Z,28.31
2023-07-30T20:43:25.865Z,28.34
2023-07-30T20:45:53.087Z,28.34
2023-07-30T20:48:20.364Z,28.32
2023-07-30T20:50:47.848Z,28.32
2023-07-30T20:53:15.009Z,28.31
2023-07-30T20:55:42.389Z,28.19
2023-07-30T20:58:11.067Z,28.20
2023-07-30T21:00:38.268Z,28.21
2023-07-30T21:03:05.624Z,28.24
2023-07-30T21:05:32.907Z,28.21
2023-07-30T21:08:00.062Z,28.24
2023-07-30T21:10:27.349Z,28.25
2023-07-30T21:12:54.514Z,28.23
2023-07-30T21:15:23.370Z,28.22
2023-07-30T21:17:50.602Z,28.30
2023-07-30T21:20:18.021Z,28.32
2023-07-30T21:22:45.237Z,28.32
2023-07-30T21:25:13.403Z,28.29
2023-07-30T21:27:40.573Z,28.21
2023-07-30T21:30:08.659Z,28.26
2023-07-30T21:32:37.318Z,28.31
2023-07-30T21:35:05.121Z,28.30
2023-07-30T21:37:32.298Z,28.28
2023-07-30T21:40:00.256Z,28.28
2023-07-30T21:42:27.988Z,28.22
2023-07-30T21:44:55.274Z,28.21
2023-07-30T21:47:22.788Z,28.15
2023-07-30T21:49:51.537Z,28.17
2023-07-30T21:52:23.177Z,28.23
2023-07-30T21:54:50.598Z,28.17
2023-07-30T21:57:18.119Z,28.14
2023-07-30T21:59:46.745Z,28.23
2023-07-30T22:02:13.927Z,28.26
2023-07-30T22:04:41.291Z,28.27
2023-07-30T22:07:10.040Z,28.25
2023-07-30T22:09:38.292Z,28.27
2023-07-30T22:12:06.037Z,28.24
2023-07-30T22:14:33.435Z,28.27
2023-07-30T22:17:00.959Z,28.25
2023-07-30T22:19:28.367Z,28.25
2023-07-30T22:21:55.667Z,28.21
2023-07-30T22:24:24.273Z,28.22
2023-07-30T22:26:51.420Z,28.23
2023-07-30T22:29:18.622Z,28.21
2023-07-30T22:31:45.799Z,28.16
2023-07-30T22:34:13.144Z,28.13
2023-07-30T22:36:40.932Z,28.15
2023-07-30T22:39:08.472Z,28.13
2023-07-30T22:41:37.096Z,28.16
2023-07-30T22:44:04.587Z,28.08
2023-07-30T22:46:31.909Z,28.14
2023-07-30T22:48:59.328Z,28.21
2023-07-30T22:51:26.765Z,28.26
2023-07-30T22:53:53.942Z,28.19
2023-07-30T22:56:21.191Z,28.23
2023-07-30T22:58:49.797Z,28.25
2023-07-30T23:01:17.049Z,28.23
2023-07-30T23:03:44.478Z,28.24
2023-07-30T23:06:11.800Z,28.25
2023-07-30T23:08:38.980Z,28.25
2023-07-30T23:11:06.346Z,28.21
2023-07-30T23:13:33.538Z,28.23
2023-07-30T23:16:02.072Z,28.19
2023-07-30T23:18:29.417Z,28.11
2023-07-30T23:20:56.724Z,28.06
2023-07-30T23:23:23.874Z,28.05
2023-07-30T23:25:51.699Z,28.07
2023-07-30T23:28:18.979Z,28.13
2023-07-30T23:30:46.209Z,28.07
2023-07-30T23:33:14.880Z,28.13
2023-07-30T23:35:42.120Z,28.16
2023-07-30T23:38:09.298Z,28.17
2023-07-30T23:40:36.494Z,28.22
2023-07-30T23:43:03.685Z,28.22
2023-07-30T23:45:30.836Z,28.20
2023-07-30T23:47:58.687Z,28.19
2023-07-30T23:50:28.153Z,28.12
2023-07-30T23:52:55.481Z,28.11
2023-07-30T23:55:22.858Z,28.17
2023-07-30T23:57:50.252Z,28.19
